createdAt,value
2022-09-14T00:02:17.185Z,100554.38
2022-09-14T00:05:18.921Z,100551.09
2022-09-14T00:08:20.438Z,100548.81
2022-09-14T00:11:24.036Z,100543.97
2022-09-14T00:14:25.556Z,100532.91
2022-09-14T00:17:27.138Z,100528.81
2022-09-14T00:20:30.325Z,100531.75
2022-09-14T00:23:32.356Z,100527.75
2022-09-14T00:26:34.794Z,100519.00
2022-09-14T00:29:36.613Z,100520.25
2022-09-14T00:32:38.116Z,100521.47
2022-09-14T00:35:40.539Z,100523.56
2022-09-14T00:38:42.313Z,100517.50
2022-09-14T00:41:46.389Z,100513.97
2022-09-14T00:44:47.995Z,100512.28
2022-09-14T00:47:52.549Z,100521.00
2022-09-14T00:50:54.683Z,100520.03
2022-09-14T00:53:56.293Z,100527.09
2022-09-14T00:57:02.340Z,100518.94
2022-09-14T01:00:08.772Z,100523.31
2022-09-14T01:03:10.268Z,100523.19
2022-09-14T01:06:39.140Z,100519.53
2022-09-14T01:09:46.093Z,100512.22
2022-09-14T01:13:19.065Z,100513.81
2022-09-14T01:16:30.691Z,100514.66
2022-09-14T01:19:57.215Z,100515.38
2022-09-14T01:23:10.974Z,100519.63
2022-09-14T01:26:36.601Z,100518.63
2022-09-14T01:29:40.732Z,100519.47
2022-09-14T01:32:57.783Z,100514.97
2022-09-14T01:36:03.342Z,100506.09
2022-09-14T01:39:06.016Z,100505.13
2022-09-14T01:42:09.396Z,100506.09
2022-09-14T01:45:16.590Z,100501.59
2022-09-14T01:48:24.457Z,100498.78
2022-09-14T01:51:31.657Z,100493.44
2022-09-14T01:54:42.104Z,100487.25
2022-09-14T01:57:51.796Z,100493.44
2022-09-14T02:00:56.712Z,100500.50
2022-09-14T02:04:04.328Z,100496.84
2022-09-14T02:07:06.374Z,100491.50
2022-09-14T02:10:12.335Z,100500.34
2022-09-14T02:13:13.972Z,100500.34
2022-09-14T02:16:15.846Z,100493.31
2022-09-14T02:19:23.036Z,100489.94
2022-09-14T02:22:27.707Z,100498.78
2022-09-14T02:25:29.822Z,100502.44
2022-09-14T02:28:31.500Z,100503.41
2022-09-14T02:31:38.870Z,100492.88
2022-09-14T02:34:53.536Z,100492.00
2022-09-14T02:38:18.050Z,100487.75
2022-09-14T02:41:44.178Z,100476.22
2022-09-14T02:45:08.882Z,100472.81
2022-09-14T02:48:41.981Z,100473.78
2022-09-14T02:51:49.040Z,100474.19
2022-09-14T02:54:54.311Z,100464.47
2022-09-14T02:58:05.021Z,100456.56
2022-09-14T03:01:08.168Z,100456.56
2022-09-14T03:04:09.944Z,100456.56
2022-09-14T03:07:11.844Z,100456.56
2022-09-14T03:10:13.517Z,100449.53
2022-09-14T03:13:15.037Z,100456.72
2022-09-14T03:16:18.360Z,100446.13
2022-09-14T03:19:20.065Z,100444.44
2022-09-14T03:22:21.593Z,100442.97
2022-09-14T03:25:23.185Z,100444.13
2022-09-14T03:28:24.788Z,100441.56
2022-09-14T03:31:26.866Z,100427.63
2022-09-14T03:34:28.553Z,100423.38
2022-09-14T03:37:30.089Z,100428.97
2022-09-14T03:40:31.767Z,100421.06
2022-09-14T03:43:34.080Z,100420.50
2022-09-14T03:46:35.703Z,100422.09
2022-09-14T03:49:37.242Z,100430.38
2022-09-14T03:52:39.261Z,100422.63
2022-09-14T03:55:41.622Z,100425.16
2022-09-14T03:58:44.689Z,100432.22
2022-09-14T04:01:46.625Z,100438.41
2022-09-14T04:04:48.379Z,100433.91
2022-09-14T04:07:49.969Z,100433.66
2022-09-14T04:10:51.869Z,100431.69
2022-09-14T04:13:53.529Z,100437.75
2022-09-14T04:16:55.130Z,100428.78
2022-09-14T04:19:56.676Z,100430.34
2022-09-14T04:22:58.585Z,100428.38
2022-09-14T04:26:00.840Z,100421.22
2022-09-14T04:29:02.463Z,100416.72
2022-09-14T04:32:04.124Z,100411.22
2022-09-14T04:35:05.940Z,100418.28
2022-09-14T04:38:07.545Z,100419.00
2022-09-14T04:41:18.432Z,100419.72
2022-09-14T04:44:20.017Z,100417.03
2022-09-14T04:47:21.619Z,100405.22
2022-09-14T04:50:23.147Z,100409.63
2022-09-14T04:53:24.868Z,100398.91
2022-09-14T04:56:27.868Z,100411.28
2022-09-14T04:59:29.382Z,100405.13
2022-09-14T05:02:32.123Z,100410.47
2022-09-14T05:05:36.610Z,100405.13
2022-09-14T05:08:38.665Z,100407.91
2022-09-14T05:11:40.892Z,100396.34
2022-09-14T05:14:42.474Z,100407.06
2022-09-14T05:17:44.221Z,100409.72
2022-09-14T05:20:45.721Z,100410.72
2022-09-14T05:23:47.893Z,100411.69
2022-09-14T05:26:52.283Z,100404.53
2022-09-14T05:29:53.848Z,100416.06
2022-09-14T05:32:57.932Z,100414.25
2022-09-14T05:36:04.806Z,100411.56
2022-09-14T05:39:07.742Z,100409.63
2022-09-14T05:42:09.736Z,100411.28
2022-09-14T05:45:11.374Z,100406.78
2022-09-14T05:48:12.894Z,100409.38
2022-09-14T05:51:16.700Z,100407.41
2022-09-14T05:54:18.285Z,100409.06
2022-09-14T05:57:19.880Z,100419.66
2022-09-14T06:00:22.523Z,100415.03
2022-09-14T06:03:24.403Z,100413.06
2022-09-14T06:06:26.377Z,100413.91
2022-09-14T06:09:31.163Z,100415.38
2022-09-14T06:12:34.885Z,100411.22
2022-09-14T06:15:36.459Z,100408.88
2022-09-14T06:18:39.352Z,100403.44
2022-09-14T06:21:41.161Z,100405.59
2022-09-14T06:24:44.965Z,100395.47
2022-09-14T06:27:46.534Z,100395.94
2022-09-14T06:30:48.221Z,100394.66
2022-09-14T06:33:51.751Z,100387.78
2022-09-14T06:36:53.377Z,100389.06
2022-09-14T06:39:55.046Z,100388.66
2022-09-14T06:43:02.276Z,100390.81
2022-09-14T06:46:06.326Z,100390.38
2022-09-14T06:49:11.808Z,100398.16
2022-09-14T06:52:13.312Z,100393.34
2022-09-14T06:55:15.012Z,100392.09
2022-09-14T06:58:16.717Z,100386.59
2022-09-14T07:01:22.309Z,100390.13
2022-09-14T07:04:25.084Z,100394.50
2022-09-14T07:07:26.610Z,100393.38
2022-09-14T07:10:28.538Z,100391.28
2022-09-14T07:13:31.166Z,100397.19
2022-09-14T07:16:34.856Z,100399.75
2022-09-14T07:19:36.383Z,100406.50
2022-09-14T07:22:37.960Z,100413.31
2022-09-14T07:25:39.669Z,100414.00
2022-09-14T07:28:42.688Z,100408.50
2022-09-14T07:31:48.067Z,100411.47
2022-09-14T07:34:49.692Z,100413.91
2022-09-14T07:37:51.281Z,100410.66
2022-09-14T07:40:53.337Z,100411.38
2022-09-14T07:44:00.264Z,100397.00
2022-09-14T07:47:01.984Z,100402.91
2022-09-14T07:50:03.878Z,100400.53
2022-09-14T07:53:05.581Z,100397.84
2022-09-14T07:56:07.636Z,100395.28
2022-09-14T08:02:35.698Z,100393.00
2022-09-14T08:05:37.280Z,100401.31
2022-09-14T08:08:41.948Z,100396.38
2022-09-14T08:11:43.633Z,100388.56
2022-09-14T08:14:45.266Z,100395.66
2022-09-14T08:17:47.664Z,100391.09
2022-09-14T08:20:49.539Z,100387.63
2022-09-14T08:23:51.497Z,100390.84
2022-09-14T08:26:53.916Z,100393.63
2022-09-14T08:29:55.497Z,100388.34
2022-09-14T08:33:01.271Z,100381.69
2022-09-14T08:36:04.109Z,100380.09
2022-09-14T08:39:09.427Z,100378.31
2022-09-14T08:42:18.753Z,100369.66
2022-09-14T08:45:22.453Z,100364.56
2022-09-14T08:48:30.448Z,100370.19
2022-09-14T08:51:33.178Z,100366.88
2022-09-14T08:54:36.984Z,100374.34
2022-09-14T08:57:46.273Z,100371.88
2022-09-14T09:01:00.115Z,100370.81
2022-09-14T09:04:35.436Z,100369.34
2022-09-14T09:08:07.613Z,100366.19
2022-09-14T09:11:17.648Z,100367.56
2022-09-14T09:14:23.950Z,100365.13
2022-09-14T09:17:31.001Z,100366.31
2022-09-14T09:20:35.789Z,100373.94
2022-09-14T09:23:37.504Z,100378.97
2022-09-14T09:26:40.303Z,100375.31
2022-09-14T09:29:42.362Z,100367.91
2022-09-14T09:32:44.064Z,100372.13
2022-09-14T09:35:45.909Z,100365.16
2022-09-14T09:38:47.488Z,100363.22
2022-09-14T09:42:00.833Z,100361.44
2022-09-14T09:45:05.959Z,100356.06
2022-09-14T09:48:11.133Z,100353.59
2022-09-14T09:51:27.013Z,100349.56
2022-09-14T09:54:31.069Z,100353.47
2022-09-14T09:57:37.141Z,100357.38
2022-09-14T10:00:38.932Z,100342.41
2022-09-14T10:03:41.057Z,100343.63
2022-09-14T10:06:55.925Z,100350.53
2022-09-14T10:10:19.312Z,100356.78
2022-09-14T10:13:37.680Z,100347.69
2022-09-14T10:16:41.344Z,100349.53
2022-09-14T10:19:54.158Z,100340.44
2022-09-14T10:22:55.841Z,100352.06
2022-09-14T10:26:12.530Z,100341.50
2022-09-14T10:29:41.454Z,100335.16
2022-09-14T10:32:55.201Z,100335.31
2022-09-14T10:35:56.733Z,100330.97
2022-09-14T10:39:16.578Z,100330.50
2022-09-14T10:42:29.796Z,100330.50
2022-09-14T10:46:04.698Z,100327.13
2022-09-14T10:49:10.239Z,100320.06
2022-09-14T10:52:33.754Z,100332.72
2022-09-14T10:55:43.879Z,100333.91
2022-09-14T10:59:08.364Z,100327.50
2022-09-14T11:02:25.415Z,100329.72
2022-09-14T11:05:38.180Z,100330.22
2022-09-14T11:08:49.904Z,100325.34
2022-09-14T11:12:08.084Z,100317.59
2022-09-14T11:15:32.462Z,100317.13
2022-09-14T11:19:00.031Z,100311.03
2022-09-14T11:22:29.665Z,100304.81
2022-09-14T11:25:45.604Z,100303.63
2022-09-14T11:29:13.050Z,100310.53
2022-09-14T11:32:32.509Z,100318.47
2022-09-14T11:35:48.352Z,100310.19
2022-09-14T11:38:56.791Z,100311.38
2022-09-14T11:42:09.740Z,100315.41
2022-09-14T11:45:33.777Z,100319.81
2022-09-14T11:48:53.852Z,100315.91
2022-09-14T11:52:13.404Z,100317.06
2022-09-14T11:55:19.658Z,100317.41
2022-09-14T11:58:25.219Z,100318.44
2022-09-14T12:01:28.611Z,100310.50
2022-09-14T12:04:30.268Z,100321.47
2022-09-14T12:07:43.981Z,100319.09
2022-09-14T12:11:02.358Z,100324.81
2022-09-14T12:14:29.760Z,100313.69
2022-09-14T12:17:41.381Z,100315.69
2022-09-14T12:20:52.866Z,100320.94
2022-09-14T12:24:00.311Z,100310.84
2022-09-14T12:27:15.709Z,100320.25
2022-09-14T12:30:40.997Z,100325.34
2022-09-14T12:33:44.261Z,100319.75
2022-09-14T12:36:45.837Z,100322.44
2022-09-14T12:40:21.718Z,100316.25
2022-09-14T12:43:52.190Z,100315.41
2022-09-14T12:46:54.793Z,100316.91
2022-09-14T12:50:21.099Z,100319.09
2022-09-14T12:53:32.492Z,100306.63
2022-09-14T12:56:38.029Z,100298.38
2022-09-14T12:59:42.751Z,100304.09
2022-09-14T13:02:52.935Z,100295.53
2022-09-14T13:05:55.509Z,100292.66
2022-09-14T13:08:58.688Z,100291.44
2022-09-14T13:12:05.829Z,100282.66
2022-09-14T13:15:18.400Z,100292.09
2022-09-14T13:18:20.038Z,100282.66
2022-09-14T13:21:25.054Z,100286.56
2022-09-14T13:24:38.714Z,100290.25
2022-09-14T13:27:40.471Z,100280.50
2022-09-14T13:30:43.162Z,100282.16
2022-09-14T13:33:50.852Z,100278.66
2022-09-14T13:36:52.909Z,100280.50
2022-09-14T13:39:57.439Z,100272.41
2022-09-14T13:43:00.114Z,100279.31
2022-09-14T13:46:02.535Z,100257.53
2022-09-14T13:49:07.164Z,100257.19
2022-09-14T13:52:34.025Z,100256.34
2022-09-14T13:55:40.409Z,100267.47
2022-09-14T13:58:41.958Z,100254.84
2022-09-14T14:02:04.317Z,100265.66
2022-09-14T14:05:06.563Z,100267.19
2022-09-14T14:08:28.611Z,100263.13
2022-09-14T14:11:36.738Z,100259.09
2022-09-14T14:14:38.904Z,100245.78
2022-09-14T14:17:42.048Z,100243.91
2022-09-14T14:20:43.577Z,100243.91
2022-09-14T14:24:02.942Z,100243.91
2022-09-14T14:27:06.973Z,100236.19
2022-09-14T14:30:17.938Z,100231.59
2022-09-14T14:33:20.208Z,100219.28
2022-09-14T14:36:21.907Z,100211.72
2022-09-14T14:39:25.360Z,100219.66
2022-09-14T14:42:27.122Z,100222.00
2022-09-14T14:45:34.246Z,100212.25
2022-09-14T14:48:38.341Z,100217.63
2022-09-14T14:51:40.416Z,100216.97
2022-09-14T14:54:42.294Z,100218.97
2022-09-14T14:57:43.817Z,100212.91
2022-09-14T15:00:45.669Z,100215.28
2022-09-14T15:03:47.521Z,100208.50
2022-09-14T15:06:49.951Z,100207.50
2022-09-14T15:09:51.489Z,100196.53
2022-09-14T15:12:53.837Z,100201.78
2022-09-14T15:15:55.561Z,100200.25
2022-09-14T15:18:57.400Z,100191.00
2022-09-14T15:22:01.539Z,100189.28
2022-09-14T15:25:05.753Z,100192.19
2022-09-14T15:28:07.400Z,100191.63
2022-09-14T15:31:09.146Z,100197.41
2022-09-14T15:34:10.743Z,100186.59
2022-09-14T15:37:12.811Z,100180.19
2022-09-14T15:40:14.665Z,100181.03
2022-09-14T15:43:17.294Z,100177.66
2022-09-14T15:46:18.851Z,100180.53
2022-09-14T15:49:23.089Z,100192.53
2022-09-14T15:52:24.628Z,100179.38
2022-09-14T15:55:26.241Z,100178.53
2022-09-14T15:58:30.432Z,100181.41
2022-09-14T16:01:32.455Z,100179.88
2022-09-14T16:04:38.625Z,100177.19
2022-09-14T16:07:40.265Z,100178.84
2022-09-14T16:10:42.235Z,100168.72
2022-09-14T16:13:44.030Z,100176.81
2022-09-14T16:16:45.709Z,100174.13
2022-09-14T16:19:49.319Z,100173.31
2022-09-14T16:22:51.004Z,100178.84
2022-09-14T16:25:52.515Z,100168.25
2022-09-14T16:28:55.199Z,100176.50
2022-09-14T16:31:57.139Z,100172.28
2022-09-14T16:34:58.729Z,100168.25
2022-09-14T16:38:00.285Z,100172.78
2022-09-14T16:41:02.455Z,100181.22
2022-09-14T16:44:05.699Z,100168.25
2022-09-14T16:47:07.366Z,100174.00
2022-09-14T16:50:09.588Z,100170.78
2022-09-14T16:53:11.187Z,100180.56
2022-09-14T16:56:17.668Z,100174.84
2022-09-14T16:59:20.596Z,100181.75
2022-09-14T17:02:22.799Z,100183.91
2022-09-14T17:05:24.434Z,100179.88
2022-09-14T17:08:26.073Z,100182.25
2022-09-14T17:11:32.264Z,100191.69
2022-09-14T17:14:34.710Z,100186.91
2022-09-14T17:17:36.293Z,100184.91
2022-09-14T17:20:38.154Z,100181.00
2022-09-14T17:23:40.832Z,100174.25
2022-09-14T17:26:42.958Z,100183.69
2022-09-14T17:29:44.610Z,100183.31
2022-09-14T17:32:46.392Z,100184.81
2022-09-14T17:35:52.816Z,100185.19
2022-09-14T17:38:59.162Z,100184.81
2022-09-14T17:42:00.671Z,100185.47
2022-09-14T17:45:05.461Z,100189.50
2022-09-14T17:48:07.528Z,100188.28
2022-09-14T17:51:20.719Z,100188.94
2022-09-14T17:54:22.462Z,100180.50
2022-09-14T17:57:24.266Z,100184.72
2022-09-14T18:00:25.937Z,100175.78
2022-09-14T18:03:27.621Z,100177.25
2022-09-14T18:06:31.880Z,100178.41
2022-09-14T18:09:33.849Z,100176.19
2022-09-14T18:12:39.813Z,100177.53
2022-09-14T18:15:41.434Z,100180.84
2022-09-14T18:18:43.237Z,100174.13
2022-09-14T18:21:47.895Z,100182.66
2022-09-14T18:24:52.241Z,100187.53
2022-09-14T18:27:53.874Z,100184.47
2022-09-14T18:31:03.889Z,100191.16
2022-09-14T18:34:05.615Z,100187.09
2022-09-14T18:37:07.305Z,100193.81
2022-09-14T18:40:09.336Z,100187.03
2022-09-14T18:43:11.032Z,100191.06
2022-09-14T18:46:13.821Z,100193.38
2022-09-14T18:49:15.534Z,100188.31
2022-09-14T18:52:18.424Z,100194.84
2022-09-14T18:55:20.309Z,100197.00
2022-09-14T18:58:22.364Z,100196.28
2022-09-14T19:01:24.182Z,100201.00
2022-09-14T19:04:26.049Z,100195.25
2022-09-14T19:07:28.009Z,100201.09
2022-09-14T19:10:29.559Z,100196.47
2022-09-14T19:13:31.201Z,100203.28
2022-09-14T19:16:32.960Z,100196.84
2022-09-14T19:19:34.745Z,100200.16
2022-09-14T19:22:36.518Z,100198.25
2022-09-14T19:25:39.417Z,100202.38
2022-09-14T19:28:41.465Z,100209.38
2022-09-14T19:31:43.337Z,100210.97
2022-09-14T19:34:45.184Z,100212.25
2022-09-14T19:37:46.781Z,100212.44
2022-09-14T19:40:52.624Z,100203.97
2022-09-14T19:43:54.375Z,100202.22
2022-09-14T19:46:56.053Z,100204.81
2022-09-14T19:49:57.642Z,100209.78
2022-09-14T19:53:02.553Z,100200.59
2022-09-14T19:56:10.516Z,100202.03
2022-09-14T19:59:12.375Z,100191.38
2022-09-14T20:02:14.268Z,100201.81
2022-09-14T20:05:16.160Z,100197.91
2022-09-14T20:08:17.763Z,100196.50
2022-09-14T20:11:21.465Z,100191.75
2022-09-14T20:14:24.958Z,100191.63
2022-09-14T20:17:27.230Z,100193.22
2022-09-14T20:20:28.882Z,100191.25
2022-09-14T20:23:30.540Z,100191.00
2022-09-14T20:26:32.931Z,100180.88
2022-09-14T20:29:35.518Z,100179.06
2022-09-14T20:32:37.201Z,100177.06
2022-09-14T20:35:38.894Z,100169.47
2022-09-14T20:38:50.371Z,100167.19
2022-09-14T20:41:52.485Z,100170.47
2022-09-14T20:44:54.016Z,100179.91
2022-09-14T20:47:55.585Z,100176.53
2022-09-14T20:50:57.849Z,100179.50
2022-09-14T20:53:59.584Z,100178.09
2022-09-14T20:57:04.463Z,100179.38
2022-09-14T21:00:07.086Z,100180.66
2022-09-14T21:03:10.307Z,100183.75
2022-09-14T21:06:15.140Z,100181.34
2022-09-14T21:09:18.267Z,100180.06
2022-09-14T21:12:19.885Z,100168.94
2022-09-14T21:15:21.664Z,100175.59
2022-09-14T21:18:23.256Z,100173.03
2022-09-14T21:21:25.765Z,100169.66
2022-09-14T21:24:27.452Z,100167.41
2022-09-14T21:27:29.074Z,100173.03
2022-09-14T21:30:31.374Z,100172.47
2022-09-14T21:33:35.266Z,100176.28
2022-09-14T21:36:43.065Z,100180.19
2022-09-14T21:39:44.714Z,100184.31
2022-09-14T21:42:47.994Z,100177.84
2022-09-14T21:45:49.909Z,100178.09
2022-09-14T21:48:52.446Z,100178.53
2022-09-14T21:51:54.402Z,100179.78
2022-09-14T21:54:56.136Z,100168.47
2022-09-14T21:57:57.741Z,100167.19
2022-09-14T22:01:01.264Z,100163.13
2022-09-14T22:04:03.119Z,100165.38
2022-09-14T22:07:04.718Z,100171.00
2022-09-14T22:10:07.178Z,100166.91
2022-09-14T22:13:08.699Z,100160.13
2022-09-14T22:16:16.065Z,100165.63
2022-09-14T22:19:21.307Z,100164.94
2022-09-14T22:22:22.842Z,100163.38
2022-09-14T22:25:25.629Z,100153.81
2022-09-14T22:28:27.136Z,100154.06
2022-09-14T22:31:30.054Z,100153.50
2022-09-14T22:34:32.443Z,100161.06
2022-09-14T22:37:34.012Z,100159.66
2022-09-14T22:40:35.558Z,100157.41
2022-09-14T22:43:38.198Z,100157.81
2022-09-14T22:46:39.857Z,100156.25
2022-09-14T22:49:41.366Z,100154.72
2022-09-14T22:52:42.860Z,100153.28
2022-09-14T22:55:45.056Z,100146.50
2022-09-14T22:58:47.518Z,100156.75
2022-09-14T23:01:49.254Z,100143.81
2022-09-14T23:04:50.830Z,100146.75
2022-09-14T23:07:52.442Z,100147.00
2022-09-14T23:10:55.377Z,100146.44
2022-09-14T23:13:58.480Z,100154.72
2022-09-14T23:17:00.070Z,100152.31
2022-09-14T23:20:02.205Z,100145.16
2022-09-14T23:23:04.020Z,100147.22
2022-09-14T23:26:08.092Z,100148.34
2022-09-14T23:29:14.423Z,100152.97
2022-09-14T23:32:15.966Z,100152.13
2022-09-14T23:35:17.871Z,100146.66
2022-09-14T23:38:19.792Z,100150.31
2022-09-14T23:41:23.225Z,100147.63
2022-09-14T23:44:24.927Z,100146.94
2022-09-14T23:47:26.493Z,100140.63
2022-09-14T23:50:28.582Z,100141.44
2022-09-14T23:53:30.504Z,100145.09
2022-09-14T23:56:32.517Z,100140.63
2022-09-14T23:59:34.305Z,100145.97
